sensor_id;sensor_type;location;lat;lon;timestamp;pressure;altitude;pressure_sealevel;temperature;humidity
54600;BME280;40500;51.084;16.958;2023-01-06T01:02:39;100851.80;;;3.47;100.00
54600;BME280;40500;51.084;16.958;2023-01-06T01:06:11;100863.66;;;3.34;100.00
54600;BME280;40500;51.084;16.958;2023-01-06T01:49:32;100894.56;;;2.91;100.00
54600;BME280;40500;51.084;16.958;2023-01-06T03:28:54;100915.85;;;2.29;100.00
54600;BME280;40500;51.084;16.958;2023-01-06T03:49:13;100917.65;;;1.62;100.00
54600;BME280;40500;51.084;16.958;2023-01-06T03:52:42;100915.91;;;1.61;100.00
54600;BME280;40500;51.084;16.958;2023-01-06T03:56:24;100915.95;;;1.63;100.00
54600;BME280;40500;51.084;16.958;2023-01-06T04:07:43;100920.89;;;1.78;100.00
54600;BME280;40500;51.084;16.958;2023-01-06T04:11:36;100914.45;;;1.89;100.00
54600;BME280;40500;51.084;16.958;2023-01-06T04:30:38;100893.14;;;2.06;100.00
54600;BME280;40500;51.084;16.958;2023-01-06T04:50:21;100892.05;;;2.30;100.00
54600;BME280;40500;51.084;16.958;2023-01-06T04:54:20;100902.84;;;2.33;100.00
54600;BME280;40500;51.084;16.958;2023-01-06T05:02:39;100900.28;;;2.42;100.00
54600;BME280;40500;51.084;16.958;2023-01-06T06:05:11;100890.61;;;3.65;100.00
54600;BME280;40500;51.084;16.958;2023-01-06T06:24:02;100901.10;;;3.69;100.00
54600;BME280;40500;51.084;16.958;2023-01-06T06:35:38;100915.98;;;3.28;100.00
54600;BME280;40500;51.084;16.958;2023-01-06T06:38:29;100912.83;;;3.19;100.00
54600;BME280;40500;51.084;16.958;2023-01-06T06:45:30;100903.92;;;3.08;100.00
54600;BME280;40500;51.084;16.958;2023-01-06T06:48:41;100904.20;;;2.97;100.00
54600;BME280;40500;51.084;16.958;2023-01-06T06:55:24;100911.31;;;2.90;100.00
54600;BME280;40500;51.084;16.958;2023-01-06T06:58:22;100902.41;;;2.87;100.00
54600;BME280;40500;51.084;16.958;2023-01-06T07:01:04;100898.06;;;2.85;100.00
54600;BME280;40500;51.084;16.958;2023-01-06T07:03:45;100903.72;;;2.84;100.00
54600;BME280;40500;51.084;16.958;2023-01-06T07:06:30;100905.93;;;2.82;100.00
54600;BME280;40500;51.084;16.958;2023-01-06T07:09:06;100905.55;;;2.81;100.00
54600;BME280;40500;51.084;16.958;2023-01-06T07:11:55;100905.86;;;2.79;100.00
54600;BME280;40500;51.084;16.958;2023-01-06T07:18:37;100911.36;;;2.77;100.00
54600;BME280;40500;51.084;16.958;2023-01-06T07:22:33;100911.92;;;2.79;100.00
54600;BME280;40500;51.084;16.958;2023-01-06T07:25:51;100911.92;;;2.79;100.00
54600;BME280;40500;51.084;16.958;2023-01-06T07:28:22;100912.91;;;2.77;100.00
54600;BME280;40500;51.084;16.958;2023-01-06T07:30:53;100916.19;;;2.77;100.00
54600;BME280;40500;51.084;16.958;2023-01-06T07:33:23;100918.13;;;2.78;100.00
54600;BME280;40500;51.084;16.958;2023-01-06T07:35:55;100917.80;;;2.80;100.00
54600;BME280;40500;51.084;16.958;2023-01-06T07:38:26;100913.45;;;2.78;100.00
54600;BME280;40500;51.084;16.958;2023-01-06T07:41:00;100911.16;;;2.76;100.00
54600;BME280;40500;51.084;16.958;2023-01-06T07:43:31;100910.96;;;2.75;100.00
54600;BME280;40500;51.084;16.958;2023-01-06T07:46:04;100897.14;;;2.76;100.00
54600;BME280;40500;51.084;16.958;2023-01-06T07:48:34;100893.45;;;2.74;100.00
54600;BME280;40500;51.084;16.958;2023-01-06T07:51:05;100886.27;;;2.70;100.00
54600;BME280;40500;51.084;16.958;2023-01-06T07:53:36;100885.73;;;2.68;100.00
54600;BME280;40500;51.084;16.958;2023-01-06T07:56:07;100887.02;;;2.65;100.00
54600;BME280;40500;51.084;16.958;2023-01-06T07:58:39;100881.79;;;2.63;100.00
54600;BME280;40500;51.084;16.958;2023-01-06T08:01:10;100878.81;;;2.62;100.00
54600;BME280;40500;51.084;16.958;2023-01-06T08:03:40;100878.44;;;2.61;100.00
54600;BME280;40500;51.084;16.958;2023-01-06T08:06:11;100871.85;;;2.60;100.00
54600;BME280;40500;51.084;16.958;2023-01-06T08:08:42;100867.88;;;2.60;100.00
54600;BME280;40500;51.084;16.958;2023-01-06T08:11:13;100871.18;;;2.61;100.00
54600;BME280;40500;51.084;16.958;2023-01-06T08:13:44;100863.73;;;2.61;100.00
54600;BME280;40500;51.084;16.958;2023-01-06T08:16:15;100867.06;;;2.62;100.00
54600;BME280;40500;51.084;16.958;2023-01-06T08:18:46;100871.42;;;2.63;100.00
54600;BME280;40500;51.084;16.958;2023-01-06T08:21:16;100874.92;;;2.65;100.00
54600;BME280;40500;51.084;16.958;2023-01-06T08:23:47;100867.20;;;2.68;100.00
54600;BME280;40500;51.084;16.958;2023-01-06T08:26:18;100867.27;;;2.70;100.00
54600;BME280;40500;51.084;16.958;2023-01-06T08:28:48;100865.73;;;2.71;100.00
54600;BME280;40500;51.084;16.958;2023-01-06T08:31:20;100858.34;;;2.73;100.00
54600;BME280;40500;51.084;16.958;2023-01-06T08:33:51;100856.18;;;2.77;100.00
54600;BME280;40500;51.084;16.958;2023-01-06T08:36:25;100856.92;;;2.79;100.00
54600;BME280;40500;51.084;16.958;2023-01-06T08:38:58;100853.84;;;2.81;100.00
54600;BME280;40500;51.084;16.958;2023-01-06T08:41:28;100843.17;;;2.83;100.00
54600;BME280;40500;51.084;16.958;2023-01-06T08:44:00;100835.41;;;2.84;100.00
54600;BME280;40500;51.084;16.958;2023-01-06T08:46:34;100838.07;;;2.87;100.00
54600;BME280;40500;51.084;16.958;2023-01-06T08:49:05;100829.65;;;2.89;100.00
54600;BME280;40500;51.084;16.958;2023-01-06T08:51:35;100828.13;;;2.91;100.00
54600;BME280;40500;51.084;16.958;2023-01-06T08:54:07;100821.77;;;2.93;100.00
54600;BME280;40500;51.084;16.958;2023-01-06T08:56:39;100822.35;;;2.95;100.00
54600;BME280;40500;51.084;16.958;2023-01-06T08:59:13;100822.24;;;2.98;100.00
54600;BME280;40500;51.084;16.958;2023-01-06T09:01:44;100828.05;;;3.03;100.00
54600;BME280;40500;51.084;16.958;2023-01-06T09:04:15;100827.21;;;3.05;100.00
54600;BME280;40500;51.084;16.958;2023-01-06T09:06:45;100839.88;;;3.06;100.00
54600;BME280;40500;51.084;16.958;2023-01-06T09:09:17;100844.58;;;3.08;100.00
54600;BME280;40500;51.084;16.958;2023-01-06T09:11:47;100845.17;;;3.11;100.00
54600;BME280;40500;51.084;16.958;2023-01-06T09:14:18;100845.98;;;3.16;100.00
54600;BME280;40500;51.084;16.958;2023-01-06T09:16:48;100842.80;;;3.22;100.00
54600;BME280;40500;51.084;16.958;2023-01-06T09:19:19;100830.09;;;3.26;100.00
54600;BME280;40500;51.084;16.958;2023-01-06T09:21:49;100822.45;;;3.33;100.00
54600;BME280;40500;51.084;16.958;2023-01-06T09:24:19;100816.57;;;3.42;100.00
54600;BME280;40500;51.084;16.958;2023-01-06T09:26:50;100810.64;;;3.48;100.00
54600;BME280;40500;51.084;16.958;2023-01-06T09:29:20;100809.02;;;3.55;100.00
54600;BME280;40500;51.084;16.958;2023-01-06T09:31:51;100815.37;;;3.61;100.00
54600;BME280;40500;51.084;16.958;2023-01-06T09:34:21;100816.15;;;3.66;100.00
54600;BME280;40500;51.084;16.958;2023-01-06T09:36:52;100819.33;;;3.69;100.00
54600;BME280;40500;51.084;16.958;2023-01-06T09:39:22;100814.63;;;3.67;100.00
54600;BME280;40500;51.084;16.958;2023-01-06T09:42:05;100821.71;;;3.66;100.00
54600;BME280;40500;51.084;16.958;2023-01-06T09:44:46;100821.95;;;3.69;100.00
54600;BME280;40500;51.084;16.958;2023-01-06T09:47:22;100821.98;;;3.71;100.00
54600;BME280;40500;51.084;16.958;2023-01-06T09:49:58;100816.84;;;3.75;100.00
54600;BME280;40500;51.084;16.958;2023-01-06T09:52:37;100807.75;;;3.80;100.00
54600;BME280;40500;51.084;16.958;2023-01-06T09:55:14;100812.50;;;3.84;100.00
54600;BME280;40500;51.084;16.958;2023-01-06T09:57:49;100801.48;;;3.87;100.00
54600;BME280;40500;51.084;16.958;2023-01-06T10:00:29;100803.00;;;3.94;100.00
54600;BME280;40500;51.084;16.958;2023-01-06T10:03:03;100799.39;;;3.97;100.00
54600;BME280;40500;51.084;16.958;2023-01-06T10:05:40;100794.67;;;4.04;100.00
54600;BME280;40500;51.084;16.958;2023-01-06T10:08:19;100788.36;;;4.11;100.00
54600;BME280;40500;51.084;16.958;2023-01-06T10:11:05;100781.14;;;4.14;100.00
54600;BME280;40500;51.084;16.958;2023-01-06T10:13:49;100772.36;;;4.17;100.00
54600;BME280;40500;51.084;16.958;2023-01-06T10:16:30;100770.38;;;4.23;100.00
54600;BME280;40500;51.084;16.958;2023-01-06T10:19:13;100766.43;;;4.26;100.00
54600;BME280;40500;51.084;16.958;2023-01-06T10:21:49;100765.67;;;4.33;100.00
54600;BME280;40500;51.084;16.958;2023-01-06T10:24:33;100763.48;;;4.38;100.00
54600;BME280;40500;51.084;16.958;2023-01-06T10:27:18;100755.56;;;4.41;100.00
54600;BME280;40500;51.084;16.958;2023-01-06T10:29:53;100750.89;;;4.42;100.00
54600;BME280;40500;51.084;16.958;2023-01-06T10:32:27;100741.93;;;4.47;100.00
54600;BME280;40500;51.084;16.958;2023-01-06T10:35:02;100740.79;;;4.51;100.00
54600;BME280;40500;51.084;16.958;2023-01-06T10:37:38;100734.90;;;4.51;100.00
54600;BME280;40500;51.084;16.958;2023-01-06T10:40:19;100726.92;;;4.51;100.00
54600;BME280;40500;51.084;16.958;2023-01-06T10:42:51;100723.91;;;4.60;100.00
54600;BME280;40500;51.084;16.958;2023-01-06T10:45:30;100720.17;;;4.65;100.00
54600;BME280;40500;51.084;16.958;2023-01-06T10:48:03;100715.70;;;4.68;100.00
54600;BME280;40500;51.084;16.958;2023-01-06T10:50:35;100712.14;;;4.74;100.00
54600;BME280;40500;51.084;16.958;2023-01-06T10:53:10;100709.73;;;4.77;100.00
54600;BME280;40500;51.084;16.958;2023-01-06T10:55:45;100710.79;;;4.77;100.00
54600;BME280;40500;51.084;16.958;2023-01-06T10:58:22;100704.21;;;4.80;100.00
54600;BME280;40500;51.084;16.958;2023-01-06T11:01:01;100703.08;;;4.84;100.00
54600;BME280;40500;51.084;16.958;2023-01-06T11:03:36;100701.90;;;4.89;100.00
54600;BME280;40500;51.084;16.958;2023-01-06T11:06:17;100676.96;;;4.92;100.00
54600;BME280;40500;51.084;16.958;2023-01-06T11:08:53;100657.95;;;4.99;100.00
54600;BME280;40500;51.084;16.958;2023-01-06T11:11:24;100662.19;;;5.06;100.00
54600;BME280;40500;51.084;16.958;2023-01-06T11:14:00;100664.67;;;5.11;100.00
54600;BME280;40500;51.084;16.958;2023-01-06T11:16:34;100660.00;;;5.12;100.00
54600;BME280;40500;51.084;16.958;2023-01-06T11:19:22;100647.73;;;5.18;100.00
54600;BME280;40500;51.084;16.958;2023-01-06T11:22:33;100642.63;;;5.30;100.00
54600;BME280;40500;51.084;16.958;2023-01-06T11:25:23;100637.17;;;5.38;100.00
54600;BME280;40500;51.084;16.958;2023-01-06T11:28:15;100635.47;;;5.44;100.00
54600;BME280;40500;51.084;16.958;2023-01-06T11:30:50;100628.89;;;5.46;100.00
54600;BME280;40500;51.084;16.958;2023-01-06T11:33:23;100611.21;;;5.51;100.00
54600;BME280;40500;51.084;16.958;2023-01-06T11:36:11;100610.44;;;5.61;100.00
54600;BME280;40500;51.084;16.958;2023-01-06T11:39:11;100612.58;;;5.69;100.00
54600;BME280;40500;51.084;16.958;2023-01-06T11:42:07;100619.53;;;5.71;100.00
54600;BME280;40500;51.084;16.958;2023-01-06T11:44:44;100609.44;;;5.68;100.00
54600;BME280;40500;51.084;16.958;2023-01-06T11:47:17;100606.11;;;5.66;100.00
54600;BME280;40500;51.084;16.958;2023-01-06T11:49:55;100593.41;;;5.62;100.00
54600;BME280;40500;51.084;16.958;2023-01-06T11:52:58;100586.42;;;5.57;100.00
54600;BME280;40500;51.084;16.958;2023-01-06T11:56:02;100586.92;;;5.54;100.00
54600;BME280;40500;51.084;16.958;2023-01-06T11:59:02;100581.38;;;5.55;100.00
54600;BME280;40500;51.084;16.958;2023-01-06T12:02:00;100585.22;;;5.59;100.00
54600;BME280;40500;51.084;16.958;2023-01-06T12:04:53;100571.51;;;5.62;100.00
54600;BME280;40500;51.084;16.958;2023-01-06T12:07:32;100569.64;;;5.65;100.00
54600;BME280;40500;51.084;16.958;2023-01-06T12:10:15;100567.02;;;5.65;100.00
54600;BME280;40500;51.084;16.958;2023-01-06T12:12:56;100564.23;;;5.62;100.00
54600;BME280;40500;51.084;16.958;2023-01-06T12:15:29;100556.74;;;5.61;100.00
54600;BME280;40500;51.084;16.958;2023-01-06T12:18:15;100556.05;;;5.60;100.00
54600;BME280;40500;51.084;16.958;2023-01-06T12:21:14;100551.88;;;5.60;100.00
54600;BME280;40500;51.084;16.958;2023-01-06T12:23:54;100550.28;;;5.56;100.00
54600;BME280;40500;51.084;16.958;2023-01-06T12:26:32;100547.48;;;5.53;100.00
54600;BME280;40500;51.084;16.958;2023-01-06T12:29:27;100547.42;;;5.45;100.00
54600;BME280;40500;51.084;16.958;2023-01-06T12:32:22;100546.54;;;5.42;100.00
54600;BME280;40500;51.084;16.958;2023-01-06T12:35:00;100539.95;;;5.42;100.00
54600;BME280;40500;51.084;16.958;2023-01-06T12:37:41;100534.92;;;5.45;100.00
54600;BME280;40500;51.084;16.958;2023-01-06T12:40:40;100527.13;;;5.47;100.00
54600;BME280;40500;51.084;16.958;2023-01-06T12:43:37;100519.30;;;5.46;100.00
54600;BME280;40500;51.084;16.958;2023-01-06T12:46:16;100511.31;;;5.46;100.00
54600;BME280;40500;51.084;16.958;2023-01-06T12:49:20;100497.25;;;5.47;100.00
54600;BME280;40500;51.084;16.958;2023-01-06T12:52:01;100501.45;;;5.51;100.00
54600;BME280;40500;51.084;16.958;2023-01-06T12:54:59;100493.45;;;5.52;100.00
54600;BME280;40500;51.084;16.958;2023-01-06T12:57:55;100500.07;;;5.53;100.00
54600;BME280;40500;51.084;16.958;2023-01-06T13:01:03;100498.38;;;5.59;100.00
54600;BME280;40500;51.084;16.958;2023-01-06T13:04:06;100502.90;;;5.60;100.00
54600;BME280;40500;51.084;16.958;2023-01-06T13:07:05;100497.67;;;5.60;100.00
54600;BME280;40500;51.084;16.958;2023-01-06T13:10:11;100494.55;;;5.59;100.00
54600;BME280;40500;51.084;16.958;2023-01-06T13:13:24;100487.95;;;5.59;100.00
54600;BME280;40500;51.084;16.958;2023-01-06T13:16:15;100480.31;;;5.62;100.00
54600;BME280;40500;51.084;16.958;2023-01-06T13:18:58;100478.25;;;5.64;100.00
54600;BME280;40500;51.084;16.958;2023-01-06T13:21:33;100482.06;;;5.64;100.00
54600;BME280;40500;51.084;16.958;2023-01-06T13:24:22;100487.61;;;5.62;100.00
54600;BME280;40500;51.084;16.958;2023-01-06T13:27:13;100482.92;;;5.62;100.00
54600;BME280;40500;51.084;16.958;2023-01-06T13:29:56;100481.19;;;5.61;100.00
54600;BME280;40500;51.084;16.958;2023-01-06T13:32:40;100485.55;;;5.64;100.00
54600;BME280;40500;51.084;16.958;2023-01-06T13:35:47;100475.31;;;5.68;100.00
54600;BME280;40500;51.084;16.958;2023-01-06T13:38:37;100473.07;;;5.72;100.00
54600;BME280;40500;51.084;16.958;2023-01-06T13:41:34;100474.65;;;5.74;100.00
54600;BME280;40500;51.084;16.958;2023-01-06T13:44:17;100463.38;;;5.79;100.00
54600;BME280;40500;51.084;16.958;2023-01-06T13:46:59;100460.45;;;5.83;100.00
54600;BME280;40500;51.084;16.958;2023-01-06T13:49:55;100455.10;;;5.92;100.00
54600;BME280;40500;51.084;16.958;2023-01-06T13:53:03;100454.13;;;6.04;100.00
54600;BME280;40500;51.084;16.958;2023-01-06T13:56:23;100459.90;;;6.14;100.00
54600;BME280;40500;51.084;16.958;2023-01-06T13:59:26;100458.17;;;6.26;100.00
54600;BME280;40500;51.084;16.958;2023-01-06T14:05:57;100455.41;;;6.29;100.00
54600;BME280;40500;51.084;16.958;2023-01-06T14:08:58;100446.55;;;6.30;100.00
54600;BME280;40500;51.084;16.958;2023-01-06T14:11:53;100451.77;;;6.31;100.00
54600;BME280;40500;51.084;16.958;2023-01-06T14:15:02;100457.15;;;6.30;100.00
54600;BME280;40500;51.084;16.958;2023-01-06T14:17:44;100453.85;;;6.28;100.00
54600;BME280;40500;51.084;16.958;2023-01-06T14:20:30;100445.83;;;6.23;100.00
54600;BME280;40500;51.084;16.958;2023-01-06T14:23:20;100435.22;;;6.19;100.00
54600;BME280;40500;51.084;16.958;2023-01-06T14:26:12;100427.73;;;6.16;100.00
54600;BME280;40500;51.084;16.958;2023-01-06T14:28:49;100422.34;;;6.13;100.00
54600;BME280;40500;51.084;16.958;2023-01-06T14:31:48;100421.98;;;6.11;100.00
54600;BME280;40500;51.084;16.958;2023-01-06T14:34:21;100421.45;;;6.08;100.00
54600;BME280;40500;51.084;16.958;2023-01-06T14:37:17;100423.35;;;6.06;100.00
54600;BME280;40500;51.084;16.958;2023-01-06T14:39:58;100427.00;;;6.04;100.00
54600;BME280;40500;51.084;16.958;2023-01-06T14:42:56;100426.65;;;6.03;100.00
54600;BME280;40500;51.084;16.958;2023-01-06T14:45:55;100426.98;;;6.02;100.00
54600;BME280;40500;51.084;16.958;2023-01-06T14:48:46;100428.21;;;6.03;100.00
54600;BME280;40500;51.084;16.958;2023-01-06T14:51:21;100432.73;;;6.03;100.00
54600;BME280;40500;51.084;16.958;2023-01-06T14:54:20;100430.65;;;6.03;100.00
54600;BME280;40500;51.084;16.958;2023-01-06T14:56:58;100436.02;;;6.02;100.00
54600;BME280;40500;51.084;16.958;2023-01-06T15:00:10;100446.11;;;6.02;100.00
54600;BME280;40500;51.084;16.958;2023-01-06T15:03:22;100442.13;;;6.03;100.00
54600;BME280;40500;51.084;16.958;2023-01-06T15:06:33;100443.52;;;6.05;100.00
54600;BME280;40500;51.084;16.958;2023-01-06T15:09:33;100446.14;;;6.07;100.00
54600;BME280;40500;51.084;16.958;2023-01-06T15:12:35;100436.40;;;6.09;100.00
54600;BME280;40500;51.084;16.958;2023-01-06T15:15:27;100430.86;;;6.11;100.00
54600;BME280;40500;51.084;16.958;2023-01-06T15:18:05;100433.99;;;6.13;100.00
54600;BME280;40500;51.084;16.958;2023-01-06T15:21:12;100435.02;;;6.15;100.00
54600;BME280;40500;51.084;16.958;2023-01-06T15:24:11;100440.08;;;6.18;100.00
54600;BME280;40500;51.084;16.958;2023-01-06T15:27:13;100443.57;;;6.21;100.00
54600;BME280;40500;51.084;16.958;2023-01-06T15:30:15;100444.09;;;6.24;100.00
54600;BME280;40500;51.084;16.958;2023-01-06T15:32:51;100445.67;;;6.28;100.00
54600;BME280;40500;51.084;16.958;2023-01-06T15:35:34;100445.33;;;6.31;100.00
54600;BME280;40500;51.084;16.958;2023-01-06T15:38:22;100448.48;;;6.36;100.00
54600;BME280;40500;51.084;16.958;2023-01-06T15:40:56;100451.27;;;6.39;100.00
54600;BME280;40500;51.084;16.958;2023-01-06T15:43:36;100454.05;;;6.42;100.00
54600;BME280;40500;51.084;16.958;2023-01-06T15:46:21;100457.18;;;6.46;100.00
54600;BME280;40500;51.084;16.958;2023-01-06T15:48:58;100454.41;;;6.49;100.00
54600;BME280;40500;51.084;16.958;2023-01-06T15:51:59;100450.77;;;6.55;100.00
54600;BME280;40500;51.084;16.958;2023-01-06T15:55:28;100453.04;;;6.63;100.00
54600;BME280;40500;51.084;16.958;2023-01-06T15:58:30;100457.23;;;6.73;100.00
54600;BME280;40500;51.084;16.958;2023-01-06T16:01:26;100454.61;;;6.80;100.00
54600;BME280;40500;51.084;16.958;2023-01-06T16:04:41;100445.03;;;6.84;100.00
54600;BME280;40500;51.084;16.958;2023-01-06T16:07:37;100449.73;;;6.85;100.00
54600;BME280;40500;51.084;16.958;2023-01-06T16:10:40;100451.48;;;6.88;100.00
54600;BME280;40500;51.084;16.958;2023-01-06T16:13:58;100457.22;;;6.92;100.00
54600;BME280;40500;51.084;16.958;2023-01-06T16:17:07;100455.65;;;6.96;100.00
54600;BME280;40500;51.084;16.958;2023-01-06T16:19:54;100457.21;;;6.99;100.00
54600;BME280;40500;51.084;16.958;2023-01-06T16:22:57;100461.06;;;7.01;100.00
54600;BME280;40500;51.084;16.958;2023-01-06T16:25:55;100460.71;;;7.02;100.00
54600;BME280;40500;51.084;16.958;2023-01-06T16:29:37;100459.66;;;7.09;100.00
54600;BME280;40500;51.084;16.958;2023-01-06T16:32:45;100459.83;;;7.10;100.00
54600;BME280;40500;51.084;16.958;2023-01-06T16:35:28;100457.05;;;7.11;100.00
54600;BME280;40500;51.084;16.958;2023-01-06T16:38:34;100457.40;;;7.12;100.00
54600;BME280;40500;51.084;16.958;2023-01-06T16:41:35;100458.61;;;7.13;100.00
54600;BME280;40500;51.084;16.958;2023-01-06T16:44:40;100457.91;;;7.16;100.00
54600;BME280;40500;51.084;16.958;2023-01-06T16:47:50;100456.86;;;7.18;100.00
54600;BME280;40500;51.084;16.958;2023-01-06T16:50:37;100457.03;;;7.20;100.00
54600;BME280;40500;51.084;16.958;2023-01-06T16:53:45;100459.81;;;7.23;100.00
54600;BME280;40500;51.084;16.958;2023-01-06T16:56:45;100460.68;;;7.24;100.00
54600;BME280;40500;51.084;16.958;2023-01-06T16:59:40;100464.34;;;7.25;100.00
54600;BME280;40500;51.084;16.958;2023-01-06T17:03:10;100470.27;;;7.26;100.00
54600;BME280;40500;51.084;16.958;2023-01-06T17:06:08;100471.48;;;7.26;100.00
54600;BME280;40500;51.084;16.958;2023-01-06T17:09:20;100477.58;;;7.27;100.00
54600;BME280;40500;51.084;16.958;2023-01-06T17:12:15;100485.06;;;7.28;100.00
54600;BME280;40500;51.084;16.958;2023-01-06T17:15:43;100478.27;;;7.30;100.00
54600;BME280;40500;51.084;16.958;2023-01-06T17:18:50;100486.27;;;7.39;100.00
54600;BME280;40500;51.084;16.958;2023-01-06T17:21:44;100484.70;;;7.46;100.00
54600;BME280;40500;51.084;16.958;2023-01-06T17:24:53;100488.50;;;7.56;100.00
54600;BME280;40500;51.084;16.958;2023-01-06T17:28:08;100493.89;;;7.65;100.00
54600;BME280;40500;51.084;16.958;2023-01-06T17:31:19;100495.62;;;7.70;100.00
54600;BME280;40500;51.084;16.958;2023-01-06T17:34:18;100499.10;;;7.73;100.00
54600;BME280;40500;51.084;16.958;2023-01-06T17:37:23;100498.38;;;7.76;100.00
54600;BME280;40500;51.084;16.958;2023-01-06T17:40:26;100501.69;;;7.81;100.00
54600;BME280;40500;51.084;16.958;2023-01-06T17:43:40;100500.29;;;7.84;100.00
54600;BME280;40500;51.084;16.958;2023-01-06T17:46:36;100502.89;;;7.87;100.00
54600;BME280;40500;51.084;16.958;2023-01-06T17:49:46;100502.17;;;7.89;100.00
54600;BME280;40500;51.084;16.958;2023-01-06T17:52:29;100504.10;;;7.88;100.00
54600;BME280;40500;51.084;16.958;2023-01-06T17:55:34;100496.95;;;7.90;100.00
54600;BME280;40500;51.084;16.958;2023-01-06T17:58:36;100508.11;;;7.89;100.00
54600;BME280;40500;51.084;16.958;2023-01-06T18:01:28;100504.45;;;7.90;100.00
54600;BME280;40500;51.084;16.958;2023-01-06T18:04:27;100502.00;;;7.91;100.00
54600;BME280;40500;51.084;16.958;2023-01-06T18:07:29;100506.02;;;7.92;100.00
54600;BME280;40500;51.084;16.958;2023-01-06T18:10:27;100509.30;;;7.93;100.00
54600;BME280;40500;51.084;16.958;2023-01-06T18:13:38;100509.66;;;7.93;100.00
54600;BME280;40500;51.084;16.958;2023-01-06T18:16:33;100519.59;;;7.93;100.00
54600;BME280;40500;51.084;16.958;2023-01-06T18:19:49;100520.14;;;7.92;100.00
54600;BME280;40500;51.084;16.958;2023-01-06T18:22:39;100521.69;;;7.93;100.00
54600;BME280;40500;51.084;16.958;2023-01-06T18:25:48;100528.15;;;7.94;100.00
54600;BME280;40500;51.084;16.958;2023-01-06T18:29:18;100536.00;;;7.94;100.00
54600;BME280;40500;51.084;16.958;2023-01-06T18:32:30;100543.31;;;7.97;100.00
54600;BME280;40500;51.084;16.958;2023-01-06T18:35:13;100542.27;;;7.98;100.00
54600;BME280;40500;51.084;16.958;2023-01-06T18:37:50;100543.14;;;7.98;100.00
54600;BME280;40500;51.084;16.958;2023-01-06T18:44:32;100542.42;;;8.01;100.00
54600;BME280;40500;51.084;16.958;2023-01-06T18:51:36;100551.64;;;8.07;100.00
54600;BME280;40500;51.084;16.958;2023-01-06T18:55:15;100550.77;;;8.10;100.00
54600;BME280;40500;51.084;16.958;2023-01-06T18:58:42;100548.33;;;8.12;100.00
54600;BME280;40500;51.084;16.958;2023-01-06T19:05:44;100541.48;;;8.19;100.00
54600;BME280;40500;51.084;16.958;2023-01-06T19:09:18;100543.58;;;8.20;100.00
54600;BME280;40500;51.084;16.958;2023-01-06T19:12:37;100546.71;;;8.20;100.00
54600;BME280;40500;51.084;16.958;2023-01-06T19:15:57;100543.41;;;8.20;100.00
54600;BME280;40500;51.084;16.958;2023-01-06T19:19:24;100544.81;;;8.18;100.00
54600;BME280;40500;51.084;16.958;2023-01-06T19:22:35;100545.50;;;8.18;100.00
54600;BME280;40500;51.084;16.958;2023-01-06T19:29:50;100548.98;;;8.19;100.00
54600;BME280;40500;51.084;16.958;2023-01-06T19:32:43;100561.55;;;8.19;100.00
54600;BME280;40500;51.084;16.958;2023-01-06T19:40:15;100564.51;;;8.17;100.00
54600;BME280;40500;51.084;16.958;2023-01-06T19:43:40;100565.41;;;8.16;100.00
54600;BME280;40500;51.084;16.958;2023-01-06T20:01:31;100594.35;;;8.19;100.00
54600;BME280;40500;51.084;16.958;2023-01-06T20:04:56;100598.17;;;8.23;100.00
54600;BME280;40500;51.084;16.958;2023-01-06T20:08:05;100598.52;;;8.25;100.00
54600;BME280;40500;51.084;16.958;2023-01-06T20:14:41;100596.27;;;8.22;100.00
54600;BME280;40500;51.084;16.958;2023-01-06T20:17:50;100597.30;;;8.21;100.00
54600;BME280;40500;51.084;16.958;2023-01-06T20:20:40;100598.18;;;8.21;100.00
54600;BME280;40500;51.084;16.958;2023-01-06T20:24:01;100599.58;;;8.19;100.00
54600;BME280;40500;51.084;16.958;2023-01-06T20:27:19;100600.47;;;8.16;100.00
54600;BME280;40500;51.084;16.958;2023-01-06T20:29:57;100601.34;;;8.15;100.00
54600;BME280;40500;51.084;16.958;2023-01-06T20:36:04;100607.45;;;8.07;100.00
54600;BME280;40500;51.084;16.958;2023-01-06T20:39:21;100616.36;;;8.03;100.00
54600;BME280;40500;51.084;16.958;2023-01-06T20:42:32;100616.90;;;7.97;100.00
54600;BME280;40500;51.084;16.958;2023-01-06T20:46:10;100618.83;;;7.93;100.00
54600;BME280;40500;51.084;16.958;2023-01-06T20:49:29;100621.44;;;7.90;100.00
54600;BME280;40500;51.084;16.958;2023-01-06T20:53:07;100630.17;;;7.87;100.00
54600;BME280;40500;51.084;16.958;2023-01-06T21:03:34;100635.92;;;7.83;100.00
54600;BME280;40500;51.084;16.958;2023-01-06T21:07:02;100639.58;;;7.84;100.00
54600;BME280;40500;51.084;16.958;2023-01-06T21:09:50;100644.46;;;7.85;100.00
54600;BME280;40500;51.084;16.958;2023-01-06T21:12:43;100645.86;;;7.86;100.00
54600;BME280;40500;51.084;16.958;2023-01-06T21:16:03;100656.31;;;7.91;100.00
54600;BME280;40500;51.084;16.958;2023-01-06T21:22:20;100658.06;;;7.90;100.00
54600;BME280;40500;51.084;16.958;2023-01-06T21:25:28;100662.77;;;7.87;100.00
54600;BME280;40500;51.084;16.958;2023-01-06T21:28:43;100670.44;;;7.84;100.00
54600;BME280;40500;51.084;16.958;2023-01-06T21:31:36;100672.88;;;7.81;100.00
54600;BME280;40500;51.084;16.958;2023-01-06T21:34:38;100675.48;;;7.78;100.00
54600;BME280;40500;51.084;16.958;2023-01-06T21:37:47;100673.93;;;7.74;100.00
54600;BME280;40500;51.084;16.958;2023-01-06T21:40:44;100676.36;;;7.71;100.00
54600;BME280;40500;51.084;16.958;2023-01-06T21:43:38;100681.08;;;7.68;100.00